Thackerville, OK (73459)

9:07 AM CDT on August 24, 2016 (GMT -0500)
Gainesville | | Change Station

Elev 829 ft 33.68 °N, 97.17 °W | Updated 8 seconds ago

Clear
Clear
78.9 °F
Feels Like 82 °F
N
5.0
Wind Variable Wind from SSE
Gusts 14.0 mph

Today
High -- | Low -- °F
--% Chance of Precip.
Yesterday
High -- | Low -- °F
Precip. -- in
Pressure 30.09 in
Visibility 10.0 miles
Clouds Clear
Heat Index 82 °F
Dew Point 72 °F
Humidity 78%
Rainfall 0.00 in
Snow Depth Not available.
6:57 AM 8:03 PM
Waning Gibbous, 56% visible
METAR K1F0 241355Z AUTO 22006KT 10SM CLR 25/19 A3009 RMK AO2
Pressure 30.09 in
Visibility 10.0 miles
Clouds Clear
Heat Index 82 °F
Dew Point 72 °F
Humidity 78%
Rainfall 0.00 in
Snow Depth Not available.
6:57 AM 8:03 PM
Waning Gibbous, 56% visible
METAR K1F0 241355Z AUTO 22006KT 10SM CLR 25/19 A3009 RMK AO2

10-Day Weather Forecast

Almanac

Astronomy

Aug. 24, 2016 Rise Set
Actual Time
Civil Twilight
Nautical Twilight
Astronomical Twilight
Moon
Length of Visible Light
Length of Day
Tomorrow will be .
, % of the Moon is Illuminated

Today's Extremes

State Highs State Lows

Community

WunderPhotos

Upload Photos

1,934,605 photos uploaded!

WunderBlog® & News

Nearby

Air Quality

  Air Quality AQ Index Pollutant
Not available.

Snow Depth

Station Depth Elevation

Earthquake Activity

City Distance Mag. Time & Date
Minimum magnitude displayed is 2.5.

Coastal Water Temperatures

Place Temperature

Stations

Nearby Weather Stations

Station Location Temp. Windchill Dew Point Humidity Wind Precip. Elev Updated Type
                   

Watches & Warnings

There are currently no watches in effect.